Time;durP1;ratioP1;P1;durP2;ratioP2;P2;SDS_P1;SDS_P2;PMS_P1;PMS_P2;Temp;Humidity;BMP_temperature;BMP_pressure;BME280_temperature;BME280_humidity;BME280_pressure;Samples;Min_cycle;Max_cycle;Signal;HPM_P1;HPM_P2
2023/11/12 00:01:53;;;;;;;3.00;1.90;;;;;;;18.73;42.17;99678.86;103654;1290;61347;-81
2023/11/12 00:04:19;;;;;;;2.70;1.80;;;;;;;18.73;42.21;99686.17;103573;1288;61379;-82
2023/11/12 00:06:45;;;;;;;3.90;1.80;;;;;;;18.73;42.25;99689.91;103799;1283;61365;-81
2023/11/12 00:09:11;;;;;;;2.80;1.90;;;;;;;18.73;42.17;99683.14;103704;1282;63400;-80
2023/11/12 00:11:37;;;;;;;3.80;2.10;;;;;;;18.73;42.28;99687.96;103718;1286;61311;-81
2023/11/12 00:14:03;;;;;;;2.70;1.80;;;;;;;18.73;42.08;99693.46;103610;1289;62541;-80
2023/11/12 00:16:28;;;;;;;3.70;2.00;;;;;;;18.73;42.25;99692.61;103697;1287;61472;-80
2023/11/12 00:18:55;;;;;;;2.90;1.70;;;;;;;18.73;42.26;99692.26;103706;1287;62626;-82
2023/11/12 00:21:20;;;;;;;2.30;1.50;;;;;;;18.73;42.32;99703.79;103677;1287;61260;-84
2023/11/12 00:23:47;;;;;;;2.90;1.90;;;;;;;18.73;42.19;99699.91;103693;1284;70069;-81
2023/11/12 00:26:13;;;;;;;3.20;1.90;;;;;;;18.74;42.28;99701.83;103885;1282;62721;-82
2023/11/12 00:28:40;;;;;;;2.60;1.70;;;;;;;18.73;42.22;99706.15;103894;1285;75069;-82
2023/11/12 00:31:06;;;;;;;2.60;1.80;;;;;;;18.73;42.14;99710.06;103836;1283;61415;-81
2023/11/12 00:33:31;;;;;;;2.30;1.70;;;;;;;18.73;42.19;99707.39;103759;1288;62619;-80
2023/11/12 00:36:00;;;;;;;2.50;1.80;;;;;;;18.73;42.07;99710.61;103577;1289;61918;-81
2023/11/12 00:38:26;;;;;;;2.90;1.90;;;;;;;18.73;42.12;99708.32;103760;1283;74462;-81
2023/11/12 00:40:54;;;;;;;2.90;1.80;;;;;;;18.73;42.20;99711.34;103678;1287;61288;-82
2023/11/12 00:43:26;;;;;;;3.10;1.90;;;;;;;18.73;42.10;99712.95;103754;1287;61259;-81
2023/11/12 00:45:57;;;;;;;2.80;1.70;;;;;;;18.72;42.18;99706.54;103865;1283;72443;-81
2023/11/12 00:48:23;;;;;;;2.90;1.90;;;;;;;18.72;42.15;99701.92;103803;1285;74422;-81
2023/11/12 00:50:49;;;;;;;2.90;1.80;;;;;;;18.73;42.21;99705.65;103789;1286;61382;-82
2023/11/12 00:53:15;;;;;;;3.10;1.80;;;;;;;18.73;42.17;99702.95;103587;1285;61817;-81
2023/11/12 00:55:41;;;;;;;3.00;1.70;;;;;;;18.73;42.10;99708.13;103548;1288;61414;-81
2023/11/12 00:58:06;;;;;;;2.50;1.70;;;;;;;18.73;42.09;99712.21;103742;1287;61805;-81
2023/11/12 01:00:32;;;;;;;3.00;1.70;;;;;;;18.73;42.15;99712.41;103679;1283;62659;-82
2023/11/12 01:03:02;;;;;;;2.80;1.70;;;;;;;18.72;42.09;99711.52;103649;1291;61471;-82
2023/11/12 01:05:28;;;;;;;2.50;1.70;;;;;;;18.73;42.20;99726.86;103985;1282;61188;-80
2023/11/12 01:07:54;;;;;;;2.40;1.50;;;;;;;18.73;42.03;99729.17;103632;1289;61304;-81
2023/11/12 01:10:21;;;;;;;3.00;1.60;;;;;;;18.72;42.01;99726.69;103563;1287;61373;-81
2023/11/12 01:12:47;;;;;;;2.30;1.60;;;;;;;18.72;42.06;99724.91;103721;1283;61820;-81
2023/11/12 01:15:17;;;;;;;3.80;1.90;;;;;;;18.73;42.15;99730.44;103783;1284;61394;-81
2023/11/12 01:17:45;;;;;;;3.20;1.70;;;;;;;18.73;42.07;99733.27;103841;1282;72264;-80
2023/11/12 01:20:12;;;;;;;2.90;1.80;;;;;;;18.73;42.03;99735.96;103804;1288;73722;-81
2023/11/12 01:22:38;;;;;;;3.00;1.70;;;;;;;18.73;42.09;99741.10;103857;1281;61294;-83
2023/11/12 01:25:04;;;;;;;2.60;1.70;;;;;;;18.73;42.14;99746.40;103782;1285;61469;-81
2023/11/12 01:27:30;;;;;;;2.40;1.60;;;;;;;18.72;42.10;99749.52;103880;1282;61364;-80
2023/11/12 01:29:56;;;;;;;2.30;1.50;;;;;;;18.73;42.13;99754.50;103816;1286;61708;-81
2023/11/12 01:32:21;;;;;;;2.60;1.60;;;;;;;18.72;42.06;99751.98;103720;1286;62663;-82
2023/11/12 01:34:47;;;;;;;3.10;1.80;;;;;;;18.73;42.08;99757.88;103582;1287;61390;-81
2023/11/12 01:37:13;;;;;;;4.00;1.70;;;;;;;18.73;41.99;99755.20;103835;1282;62649;-82
2023/11/12 01:39:40;;;;;;;2.90;1.90;;;;;;;18.72;42.13;99760.04;103893;1285;72511;-80
2023/11/12 01:42:11;;;;;;;2.00;1.50;;;;;;;18.72;42.00;99765.21;103589;1282;74488;-81
2023/11/12 01:44:37;;;;;;;3.30;1.80;;;;;;;18.72;42.03;99767.38;103737;1285;61197;-80
2023/11/12 01:47:04;;;;;;;3.30;1.80;;;;;;;18.72;42.06;99767.58;104139;1283;61286;-81
2023/11/12 01:49:32;;;;;;;2.50;1.70;;;;;;;18.72;42.10;99767.73;103832;1283;72489;-81
2023/11/12 01:51:57;;;;;;;2.50;1.60;;;;;;;18.72;41.96;99770.95;103841;1282;75811;-80
2023/11/12 01:54:23;;;;;;;2.10;1.50;;;;;;;18.72;42.03;99769.70;103632;1282;61831;-81
2023/11/12 01:56:55;;;;;;;2.40;1.70;;;;;;;18.72;42.10;99770.02;103710;1283;61390;-80
2023/11/12 01:59:22;;;;;;;3.60;2.00;;;;;;;18.72;42.07;99781.62;103700;1287;72196;-80
2023/11/12 02:01:50;;;;;;;3.50;1.50;;;;;;;18.72;41.98;99778.07;103733;1288;75644;-81
2023/11/12 02:04:16;;;;;;;2.90;1.80;;;;;;;18.72;41.93;99779.48;103677;1284;61310;-81
2023/11/12 02:06:42;;;;;;;2.30;1.50;;;;;;;18.72;41.96;99778.62;103965;1283;62653;-81
2023/11/12 02:09:07;;;;;;;2.40;1.60;;;;;;;18.72;42.00;99778.27;103793;1287;61391;-81
2023/11/12 02:11:34;;;;;;;2.80;1.70;;;;;;;18.72;42.03;99779.16;103577;1282;61379;-81
2023/11/12 02:14:00;;;;;;;2.30;1.40;;;;;;;18.71;41.92;99784.70;103824;1282;61643;-81
2023/11/12 02:16:26;;;;;;;2.40;1.80;;;;;;;18.71;41.91;99783.27;103728;1280;62448;-81
2023/11/12 02:18:51;;;;;;;2.90;1.70;;;;;;;18.72;41.95;99784.88;103818;1285;62544;-80
2023/11/12 02:21:26;;;;;;;2.60;1.60;;;;;;;18.72;41.85;99791.44;103375;1286;61285;-81
2023/11/12 02:23:52;;;;;;;3.50;1.80;;;;;;;18.71;41.98;99784.70;103538;1285;75636;-81
2023/11/12 02:26:18;;;;;;;3.50;1.70;;;;;;;18.71;41.89;99789.52;103541;1285;61466;-83
2023/11/12 02:28:44;;;;;;;2.00;1.50;;;;;;;18.71;41.94;99790.10;103498;1286;61459;-81
2023/11/12 02:31:14;;;;;;;3.60;1.40;;;;;;;18.71;41.92;99788.32;103331;1285;62094;-81
2023/11/12 02:33:40;;;;;;;2.70;1.70;;;;;;;18.71;41.88;99788.45;103387;1290;74306;-83
2023/11/12 02:36:07;;;;;;;2.80;1.60;;;;;;;18.71;41.77;99788.85;103349;1285;62058;-81
2023/11/12 02:38:35;;;;;;;2.50;1.60;;;;;;;18.71;41.94;99796.15;103170;1286;61381;-81
2023/11/12 02:41:07;;;;;;;4.20;1.60;;;;;;;18.71;41.93;99793.66;102892;1293;71415;-82
2023/11/12 02:43:34;;;;;;;2.50;1.70;;;;;;;18.70;41.93;99794.06;103481;1285;73327;-82
2023/11/12 02:45:59;;;;;;;3.10;1.40;;;;;;;18.70;41.86;99795.67;103407;1289;61451;-81
2023/11/12 02:48:28;;;;;;;1.70;1.40;;;;;;;18.70;41.81;99800.84;103279;1286;61498;-82
2023/11/12 02:50:54;;;;;;;2.10;1.50;;;;;;;18.70;41.84;99798.53;103534;1291;72437;-83
2023/11/12 02:53:20;;;;;;;2.10;1.50;;;;;;;18.70;41.99;99800.69;103691;1282;61797;-80
2023/11/12 02:55:45;;;;;;;2.10;1.40;;;;;;;18.70;41.92;99797.13;103821;1281;61391;-81
2023/11/12 02:58:12;;;;;;;2.50;1.60;;;;;;;18.70;41.83;99803.34;103798;1286;61314;-82
2023/11/12 03:00:37;;;;;;;2.60;1.70;;;;;;;18.70;41.72;99805.83;103634;1287;61433;-81
2023/11/12 03:03:04;;;;;;;2.70;1.60;;;;;;;18.70;41.80;99802.48;103474;1288;61401;-83
2023/11/12 03:05:31;;;;;;;2.60;1.60;;;;;;;18.70;41.80;99809.42;103960;1282;61762;-80
2023/11/12 03:08:00;;;;;;;3.00;1.50;;;;;;;18.70;41.85;99807.98;103978;1281;61315;-80
2023/11/12 03:10:25;;;;;;;3.10;1.60;;;;;;;18.70;41.87;99808.35;103853;1281;61377;-82
2023/11/12 03:12:51;;;;;;;2.20;1.60;;;;;;;18.70;41.88;99815.33;103938;1284;61436;-82
2023/11/12 03:15:18;;;;;;;2.10;1.40;;;;;;;18.70;41.89;99813.52;103677;1288;61613;-80
2023/11/12 03:17:45;;;;;;;2.10;1.50;;;;;;;18.70;41.81;99820.32;103628;1282;61382;-81
2023/11/12 03:20:13;;;;;;;2.60;1.70;;;;;;;18.70;41.83;99820.30;103773;1282;61375;-85
2023/11/12 03:22:39;;;;;;;2.40;1.50;;;;;;;18.69;41.86;99827.64;103616;1284;72953;-81
2023/11/12 03:25:06;;;;;;;2.40;1.60;;;;;;;18.69;41.78;99836.20;103758;1281;61313;-81
2023/11/12 03:27:34;;;;;;;2.80;1.60;;;;;;;18.69;41.94;99835.70;103762;1282;61407;-83
2023/11/12 03:30:00;;;;;;;2.50;1.60;;;;;;;18.69;41.74;99832.82;103707;1283;62445;-81
2023/11/12 03:32:26;;;;;;;1.90;1.50;;;;;;;18.70;41.89;99834.93;103883;1282;61790;-80
2023/11/12 03:34:53;;;;;;;2.20;1.60;;;;;;;18.70;41.77;99837.23;103610;1287;62446;-81
2023/11/12 03:37:22;;;;;;;3.10;1.60;;;;;;;18.69;41.87;99846.55;103779;1286;61298;-80
2023/11/12 03:39:53;;;;;;;3.30;1.50;;;;;;;18.69;41.73;99843.34;103767;1282;61364;-81
2023/11/12 03:42:19;;;;;;;1.90;1.30;;;;;;;18.69;41.85;99849.56;103818;1282;61382;-82
2023/11/12 03:44:46;;;;;;;2.10;1.40;;;;;;;18.69;41.88;99852.07;103660;1283;61452;-81
2023/11/12 03:47:12;;;;;;;2.10;1.40;;;;;;;18.69;41.77;99848.52;103924;1282;61326;-81
2023/11/12 03:49:39;;;;;;;2.90;1.60;;;;;;;18.69;41.81;99857.95;103931;1285;61344;-81
2023/11/12 03:52:05;;;;;;;2.60;1.50;;;;;;;18.69;41.90;99862.23;103964;1282;61320;-82
2023/11/12 03:54:31;;;;;;;2.00;1.40;;;;;;;18.69;41.76;99868.10;103646;1282;61455;-80
2023/11/12 03:56:57;;;;;;;1.90;1.50;;;;;;;18.69;41.73;99870.08;103810;1282;61384;-81
2023/11/12 03:59:22;;;;;;;1.70;1.30;;;;;;;18.70;41.83;99871.83;103631;1283;61332;-81
2023/11/12 04:01:48;;;;;;;2.50;1.50;;;;;;;18.69;41.70;99878.66;103689;1287;61368;-81
2023/11/12 04:04:14;;;;;;;2.50;1.60;;;;;;;18.69;41.66;99877.79;103655;1282;62608;-84
2023/11/12 04:06:41;;;;;;;1.90;1.40;;;;;;;18.69;41.55;99875.07;103827;1282;74257;-81
2023/11/12 04:09:08;;;;;;;2.20;1.50;;;;;;;18.68;41.79;99876.91;103706;1282;61251;-81
2023/11/12 04:11:35;;;;;;;2.30;1.40;;;;;;;18.69;41.78;99879.02;103753;1282;62544;-81
2023/11/12 04:14:02;;;;;;;1.70;1.40;;;;;;;18.69;41.57;99878.85;103673;1283;72314;-81
2023/11/12 04:16:28;;;;;;;2.10;1.50;;;;;;;18.68;41.56;99880.48;103655;1282;73581;-81
2023/11/12 04:18:54;;;;;;;2.20;1.50;;;;;;;18.69;41.58;99879.75;103849;1283;62432;-81
2023/11/12 04:21:20;;;;;;;1.90;1.40;;;;;;;18.69;41.62;99881.73;103836;1282;61396;-80
2023/11/12 04:23:49;;;;;;;2.40;1.50;;;;;;;18.68;41.58;99880.70;103823;1283;62601;-81
2023/11/12 04:26:15;;;;;;;2.20;1.40;;;;;;;18.68;41.67;99879.08;103796;1283;73788;-83
2023/11/12 04:28:40;;;;;;;2.30;1.50;;;;;;;18.68;41.61;99879.08;103865;1283;61447;-81
2023/11/12 04:31:06;;;;;;;2.50;1.50;;;;;;;18.68;41.73;99879.77;103723;1283;61347;-81
2023/11/12 04:33:31;;;;;;;2.60;1.60;;;;;;;18.68;41.60;99881.91;103735;1282;62070;-83
2023/11/12 04:35:57;;;;;;;2.70;1.50;;;;;;;18.68;41.67;99881.96;103541;1289;61392;-82
2023/11/12 04:38:23;;;;;;;1.90;1.30;;;;;;;18.68;41.58;99884.41;103889;1282;61387;-82
2023/11/12 04:40:52;;;;;;;2.10;1.50;;;;;;;18.68;41.71;99892.10;103699;1282;61308;-81
2023/11/12 04:43:17;;;;;;;2.80;1.50;;;;;;;18.68;41.65;99891.75;103627;1284;62555;-80
2023/11/12 04:45:43;;;;;;;1.90;1.50;;;;;;;18.67;41.56;99899.08;103785;1287;61397;-82
2023/11/12 04:48:11;;;;;;;1.90;1.30;;;;;;;18.67;41.70;99896.63;103745;1283;62408;-81
2023/11/12 04:50:40;;;;;;;4.80;1.40;;;;;;;18.67;41.62;99900.17;103725;1287;61380;-81
2023/11/12 04:53:06;;;;;;;;;;;;;;;18.67;41.56;99902.67;103725;1282;62592;-81
2023/11/12 04:55:32;;;;;;;2.50;1.60;;;;;;;18.65;41.54;99910.70;103717;1282;61773;-81
2023/11/12 04:58:04;;;;;;;1.80;1.40;;;;;;;18.65;41.60;99914.73;103854;1282;74522;-81
2023/11/12 05:00:32;;;;;;;2.30;1.50;;;;;;;18.65;41.60;99910.84;103902;1284;61353;-81
2023/11/12 05:02:58;;;;;;;2.60;1.50;;;;;;;18.65;41.61;99916.35;103565;1282;61368;-80
2023/11/12 05:05:23;;;;;;;1.80;1.40;;;;;;;18.66;41.48;99913.84;103949;1283;62748;-80
2023/11/12 05:07:49;;;;;;;2.50;1.50;;;;;;;18.66;41.50;99915.40;103773;1284;61314;-81
2023/11/12 05:10:15;;;;;;;2.70;1.60;;;;;;;18.66;41.67;99922.89;103816;1282;63149;-82
2023/11/12 05:12:41;;;;;;;2.50;1.50;;;;;;;18.66;41.61;99924.65;103808;1282;61337;-82
2023/11/12 05:15:07;;;;;;;2.10;1.40;;;;;;;18.66;41.65;99932.54;103563;1282;61408;-80
2023/11/12 05:17:35;;;;;;;2.00;1.40;;;;;;;18.66;41.58;99933.21;103831;1285;73344;-80
2023/11/12 05:20:05;;;;;;;1.90;1.40;;;;;;;18.66;41.46;99949.42;103659;1282;74198;-80
2023/11/12 05:22:32;;;;;;;3.70;1.50;;;;;;;18.66;41.58;99960.14;103705;1282;61724;-81
2023/11/12 05:24:57;;;;;;;3.00;1.40;;;;;;;18.66;41.53;99960.29;103939;1282;61368;-81
2023/11/12 05:27:23;;;;;;;1.90;1.30;;;;;;;18.66;41.61;99963.68;103806;1283;61409;-80
2023/11/12 05:29:49;;;;;;;2.10;1.50;;;;;;;18.66;41.53;99962.61;103472;1282;62535;-79
2023/11/12 05:32:14;;;;;;;2.10;1.40;;;;;;;18.67;41.58;99969.52;103642;1281;61388;-82
2023/11/12 05:34:40;;;;;;;2.00;1.50;;;;;;;18.67;41.45;99980.23;103612;1287;61496;-81
2023/11/12 05:37:06;;;;;;;2.00;1.50;;;;;;;18.67;41.49;99984.69;103797;1287;62438;-81
2023/11/12 05:39:31;;;;;;;1.70;1.40;;;;;;;18.67;41.63;99993.20;103738;1282;61310;-81
2023/11/12 05:41:58;;;;;;;1.60;1.30;;;;;;;18.67;41.42;99995.52;103678;1282;61364;-80
2023/11/12 05:44:23;;;;;;;2.20;1.60;;;;;;;18.67;41.50;100003.00;103649;1282;61452;-81
2023/11/12 05:46:49;;;;;;;2.40;1.50;;;;;;;18.68;41.43;100009.58;103824;1282;62585;-81
2023/11/12 05:49:15;;;;;;;2.00;1.50;;;;;;;18.68;41.50;100009.38;103576;1282;61359;-81
2023/11/12 05:51:40;;;;;;;1.90;1.40;;;;;;;18.67;41.44;100020.66;103692;1287;71492;-83
2023/11/12 05:54:06;;;;;;;1.70;1.40;;;;;;;18.67;41.53;100028.46;103861;1284;62479;-80
2023/11/12 05:56:32;;;;;;;2.50;1.50;;;;;;;18.68;41.40;100032.72;103780;1282;61314;-80
2023/11/12 05:58:58;;;;;;;1.70;1.40;;;;;;;18.68;41.58;100041.42;103361;1283;61352;-81
2023/11/12 06:01:24;;;;;;;1.60;1.40;;;;;;;18.68;41.40;100051.79;103700;1282;61404;-81
2023/11/12 06:03:52;;;;;;;2.30;1.70;;;;;;;18.68;41.43;100059.44;103659;1288;62031;-82
2023/11/12 06:06:17;;;;;;;2.20;1.40;;;;;;;18.68;41.39;100065.34;103886;1282;61523;-80
2023/11/12 06:08:43;;;;;;;1.70;1.30;;;;;;;18.68;41.42;100078.87;103999;1282;62563;-81
2023/11/12 06:11:09;;;;;;;2.20;1.40;;;;;;;18.68;41.48;100079.56;103746;1288;61401;-81
2023/11/12 06:13:35;;;;;;;1.70;1.20;;;;;;;18.68;41.40;100081.36;103687;1282;73336;-84
2023/11/12 06:16:01;;;;;;;2.40;1.60;;;;;;;18.68;41.28;100088.65;103755;1283;62625;-81
2023/11/12 06:18:26;;;;;;;1.70;1.30;;;;;;;18.68;41.31;100084.56;103892;1282;62240;-81
2023/11/12 06:20:52;;;;;;;2.10;1.40;;;;;;;18.69;41.40;100100.34;103606;1282;61372;-80
2023/11/12 06:23:18;;;;;;;1.90;1.30;;;;;;;18.69;41.29;100094.87;103695;1281;61348;-81
2023/11/12 06:25:43;;;;;;;1.40;1.30;;;;;;;18.69;41.41;100097.89;103873;1287;62624;-82
2023/11/12 06:28:09;;;;;;;2.20;1.40;;;;;;;18.69;41.44;100097.35;103881;1283;74395;-80
2023/11/12 06:30:35;;;;;;;2.60;1.50;;;;;;;18.69;41.34;100100.92;103929;1281;61391;-80
2023/11/12 06:33:00;;;;;;;2.50;1.50;;;;;;;18.69;41.29;100106.64;103752;1282;61961;-81
2023/11/12 06:35:26;;;;;;;2.30;1.50;;;;;;;18.69;41.45;100108.75;103520;1281;61487;-81
2023/11/12 06:37:55;;;;;;;3.20;1.50;;;;;;;18.69;41.31;100111.79;103772;1288;61389;-81
2023/11/12 06:40:21;;;;;;;2.30;1.50;;;;;;;18.69;41.38;100112.36;103754;1283;62172;-81
2023/11/12 06:42:47;;;;;;;1.80;1.50;;;;;;;18.68;41.34;100109.86;103784;1282;61405;-81
2023/11/12 06:45:13;;;;;;;1.50;1.30;;;;;;;18.69;41.25;100111.26;103733;1282;61698;-81
2023/11/12 06:47:39;;;;;;;2.30;1.50;;;;;;;18.69;41.20;100120.52;103822;1283;61360;-81
2023/11/12 06:50:07;;;;;;;2.60;1.60;;;;;;;18.69;41.32;100120.66;103779;1282;61342;-80
2023/11/12 06:52:32;;;;;;;1.70;1.30;;;;;;;18.69;41.32;100127.26;103576;1281;61433;-80
2023/11/12 06:55:01;;;;;;;2.60;1.20;;;;;;;18.69;41.32;100126.56;103338;1282;61375;-81
2023/11/12 06:57:27;;;;;;;2.40;1.60;;;;;;;18.69;41.23;100134.23;103760;1287;62244;-81
2023/11/12 06:59:53;;;;;;;1.80;1.30;;;;;;;18.69;41.40;100143.14;103806;1282;61343;-80
2023/11/12 07:02:18;;;;;;;2.00;1.30;;;;;;;18.69;41.41;100148.33;103793;1282;61834;-81
2023/11/12 07:05:07;;;;;;;2.70;1.50;;;;;;;18.69;41.15;100153.80;103539;1282;61382;-79
2023/11/12 07:07:33;;;;;;;1.20;1.10;;;;;;;18.69;41.29;100157.36;103276;1288;74428;-82
2023/11/12 07:09:59;;;;;;;1.90;1.40;;;;;;;18.69;41.13;100160.94;103023;1294;61405;-81
2023/11/12 07:12:25;;;;;;;2.30;1.40;;;;;;;18.69;41.42;100155.59;102944;1288;63476;-81
2023/11/12 07:14:51;;;;;;;2.30;1.40;;;;;;;18.69;41.19;100164.15;102896;1289;62248;-81
2023/11/12 07:17:17;;;;;;;1.90;1.30;;;;;;;18.70;41.27;100167.85;102934;1288;61529;-81
2023/11/12 07:19:42;;;;;;;1.80;1.30;;;;;;;18.69;41.34;100163.98;102922;1290;61289;-81
2023/11/12 07:22:09;;;;;;;1.70;1.20;;;;;;;18.70;41.13;100169.83;103001;1290;61555;-81
2023/11/12 07:24:35;;;;;;;3.30;1.40;;;;;;;18.70;41.17;100170.88;102790;1290;61540;-82
2023/11/12 07:27:02;;;;;;;2.20;1.50;;;;;;;18.70;41.27;100172.13;103242;1289;61322;-81
2023/11/12 07:29:28;;;;;;;2.00;1.40;;;;;;;18.70;41.29;100179.80;103247;1291;74634;-82
2023/11/12 07:31:56;;;;;;;1.60;1.30;;;;;;;18.70;41.19;100178.00;103270;1288;61507;-82
2023/11/12 07:34:22;;;;;;;2.60;1.50;;;;;;;18.70;41.18;100176.94;103139;1291;61852;-82
2023/11/12 07:36:48;;;;;;;2.10;1.40;;;;;;;18.70;41.25;100179.24;103251;1293;61343;-82
2023/11/12 07:39:14;;;;;;;1.70;1.40;;;;;;;18.70;41.31;100184.60;103222;1290;61476;-82
2023/11/12 07:41:39;;;;;;;2.10;1.40;;;;;;;18.70;41.02;100184.23;103181;1291;61516;-82
2023/11/12 07:44:05;;;;;;;1.80;1.20;;;;;;;18.70;41.16;100182.63;103305;1289;61591;-81
2023/11/12 07:46:31;;;;;;;1.50;1.20;;;;;;;18.71;41.15;100179.21;104349;1282;61401;-81
2023/11/12 07:48:57;;;;;;;1.70;1.20;;;;;;;18.71;41.20;100187.20;104323;1284;61397;-81
2023/11/12 07:51:23;;;;;;;1.90;1.30;;;;;;;18.71;41.15;100190.58;104106;1281;74401;-82
2023/11/12 07:53:49;;;;;;;1.70;1.30;;;;;;;18.71;41.15;100191.64;104123;1283;61396;-82
2023/11/12 07:56:15;;;;;;;2.10;1.40;;;;;;;18.72;41.21;100199.80;103990;1282;61204;-81
2023/11/12 07:58:41;;;;;;;1.50;1.20;;;;;;;18.71;41.13;100210.89;103903;1287;61452;-82
2023/11/12 08:01:07;;;;;;;1.80;1.40;;;;;;;18.72;41.16;100210.14;103943;1287;61510;-82
2023/11/12 08:03:32;;;;;;;1.70;1.20;;;;;;;18.72;41.13;100209.06;104175;1281;61870;-82
2023/11/12 08:05:58;;;;;;;2.20;1.40;;;;;;;18.72;41.17;100214.02;104205;1282;61320;-81
2023/11/12 08:08:26;;;;;;;1.50;1.20;;;;;;;18.72;41.02;100214.73;104086;1287;61375;-82
2023/11/12 08:10:59;;;;;;;1.90;1.40;;;;;;;18.72;40.93;100222.02;103978;1282;72193;-82
2023/11/12 08:13:26;;;;;;;1.70;1.30;;;;;;;18.73;41.03;100228.23;103846;1282;74275;-80
2023/11/12 08:15:52;;;;;;;1.90;1.40;;;;;;;18.73;41.03;100231.80;103952;1282;62533;-81
2023/11/12 08:18:17;;;;;;;2.30;1.30;;;;;;;18.73;40.99;100227.89;103942;1282;61474;-82
2023/11/12 08:20:43;;;;;;;2.10;1.40;;;;;;;18.73;41.02;100238.04;103965;1282;61868;-81
2023/11/12 08:23:09;;;;;;;1.70;1.30;;;;;;;18.74;41.08;100234.44;104306;1280;61771;-81
2023/11/12 08:25:34;;;;;;;1.90;1.20;;;;;;;18.74;41.03;100238.16;104261;1280;62432;-82
2023/11/12 08:28:00;;;;;;;2.60;1.50;;;;;;;18.74;41.15;100244.38;103797;1282;299163;-82
2023/11/12 08:30:26;;;;;;;2.00;1.50;;;;;;;18.75;41.16;100235.08;104076;1282;61258;-82
2023/11/12 08:32:52;;;;;;;1.90;1.30;;;;;;;18.74;41.09;100238.48;103974;1282;61433;-82
2023/11/12 08:35:17;;;;;;;1.70;1.30;;;;;;;18.75;40.94;100248.45;103841;1287;61403;-82
2023/11/12 08:37:43;;;;;;;1.90;1.30;;;;;;;18.75;41.11;100242.70;103958;1280;61941;-82
2023/11/12 08:40:09;;;;;;;1.60;1.20;;;;;;;18.75;40.94;100240.74;104247;1282;61807;-82
2023/11/12 08:42:35;;;;;;;1.60;1.30;;;;;;;18.76;41.21;100241.79;103806;1289;61289;-82
2023/11/12 08:45:01;;;;;;;1.40;1.10;;;;;;;18.75;41.09;100246.11;104050;1281;61442;-82
2023/11/12 08:47:26;;;;;;;1.20;1.10;;;;;;;18.76;41.05;100253.36;104077;1287;74699;-82
2023/11/12 08:49:52;;;;;;;1.80;1.20;;;;;;;18.76;41.13;100260.31;104135;1285;61535;-83
2023/11/12 08:52:19;;;;;;;2.40;1.40;;;;;;;18.76;41.05;100256.74;103957;1282;62450;-81
2023/11/12 08:54:46;;;;;;;3.20;1.50;;;;;;;18.76;41.22;100262.79;103703;1282;61441;-81
2023/11/12 08:57:11;;;;;;;1.90;1.40;;;;;;;18.76;41.11;100260.63;103994;1282;61391;-81
2023/11/12 08:59:37;;;;;;;2.00;1.40;;;;;;;18.76;41.11;100261.02;103858;1282;62498;-82
2023/11/12 09:02:03;;;;;;;2.00;1.40;;;;;;;18.76;41.28;100260.83;103868;1282;61420;-81
2023/11/12 09:04:29;;;;;;;1.70;1.20;;;;;;;18.76;41.22;100263.65;103983;1286;61445;-82
2023/11/12 09:06:55;;;;;;;1.80;1.20;;;;;;;18.76;41.12;100262.41;104070;1282;61378;-81
2023/11/12 09:09:20;;;;;;;1.70;1.20;;;;;;;18.76;41.23;100254.94;103848;1282;74405;-82
2023/11/12 09:11:46;;;;;;;2.60;1.30;;;;;;;18.76;41.21;100253.86;104158;1281;61471;-82
2023/11/12 09:14:14;;;;;;;1.70;1.40;;;;;;;18.76;41.18;100256.89;103948;1282;61429;-82
2023/11/12 09:16:44;;;;;;;2.30;1.40;;;;;;;18.76;41.23;100263.85;104022;1282;72285;-82
2023/11/12 09:19:11;;;;;;;1.80;1.10;;;;;;;18.76;41.21;100267.42;103940;1281;74537;-82
2023/11/12 09:21:36;;;;;;;2.10;1.20;;;;;;;18.76;41.19;100265.81;103918;1282;61158;-82
2023/11/12 09:24:02;;;;;;;2.60;1.40;;;;;;;18.77;41.13;100263.63;103838;1282;61794;-81
2023/11/12 09:26:28;;;;;;;2.80;1.40;;;;;;;18.76;41.32;100269.00;103999;1284;61451;-81
2023/11/12 09:28:53;;;;;;;1.70;1.40;;;;;;;18.76;41.28;100274.17;104010;1282;61391;-81
2023/11/12 09:31:19;;;;;;;2.00;1.30;;;;;;;18.77;41.22;100273.81;104201;1282;61446;-82
2023/11/12 09:33:46;;;;;;;1.40;1.10;;;;;;;18.77;41.22;100268.80;104165;1281;61383;-82
2023/11/12 09:36:14;;;;;;;3.40;1.30;;;;;;;18.77;41.25;100262.56;103916;1283;61216;-82
2023/11/12 09:38:39;;;;;;;1.80;1.40;;;;;;;18.76;41.19;100262.44;104094;1283;61285;-81
2023/11/12 09:41:06;;;;;;;1.60;1.20;;;;;;;18.76;41.18;100264.55;103827;1282;61291;-82
2023/11/12 09:43:32;;;;;;;1.70;1.40;;;;;;;18.76;41.28;100267.05;103871;1282;61305;-83
2023/11/12 09:45:58;;;;;;;1.30;1.20;;;;;;;18.77;41.23;100276.13;103865;1282;61319;-82
2023/11/12 09:48:32;;;;;;;1.90;1.40;;;;;;;18.77;41.21;100272.38;104035;1284;61394;-81
2023/11/12 09:51:05;;;;;;;1.90;1.30;;;;;;;18.76;41.22;100280.05;104092;1281;74484;-82
2023/11/12 09:53:37;;;;;;;1.30;1.10;;;;;;;18.77;41.23;100276.83;103835;1282;63136;-82
2023/11/12 09:56:08;;;;;;;2.00;1.30;;;;;;;18.77;41.02;100278.08;103801;1282;61382;-81
2023/11/12 09:58:40;;;;;;;1.80;1.30;;;;;;;18.77;41.18;100292.52;104304;1282;72456;-82
2023/11/12 10:01:09;;;;;;;1.60;1.30;;;;;;;18.77;41.08;100282.67;103909;1282;74463;-82
2023/11/12 10:03:35;;;;;;;1.60;1.20;;;;;;;18.77;41.19;100280.94;103809;1282;61454;-82
2023/11/12 10:06:06;;;;;;;1.60;1.10;;;;;;;18.77;41.05;100288.06;104238;1282;61295;-80
2023/11/12 10:08:35;;;;;;;1.50;1.20;;;;;;;18.77;41.12;100282.15;103895;1290;71188;-81
2023/11/12 10:11:17;;;;;;;1.50;1.10;;;;;;;18.77;40.95;100288.95;103996;1282;74446;-82
2023/11/12 10:13:43;;;;;;;2.60;1.50;;;;;;;18.77;41.21;100279.67;104185;1283;61308;-82
2023/11/12 10:16:31;;;;;;;2.90;1.50;;;;;;;18.76;41.24;100278.43;104257;1281;62550;-81
2023/11/12 10:19:12;;;;;;;2.40;1.40;;;;;;;18.76;41.03;100282.39;103943;1282;72335;-81
2023/11/12 10:22:09;;;;;;;1.80;1.20;;;;;;;18.76;41.09;100289.69;103977;1280;73382;-82
2023/11/12 10:24:46;;;;;;;1.90;1.40;;;;;;;18.76;41.02;100297.38;103208;1288;61411;-82
2023/11/12 10:27:14;;;;;;;1.60;1.20;;;;;;;18.76;41.15;100297.19;103523;1288;61319;-81
2023/11/12 10:29:41;;;;;;;1.80;1.10;;;;;;;18.75;41.08;100292.96;103433;1288;72495;-83
2023/11/12 10:32:07;;;;;;;1.40;1.20;;;;;;;18.76;41.07;100300.96;103232;1288;74485;-82
2023/11/12 10:34:34;;;;;;;1.70;1.30;;;;;;;18.75;40.99;100299.17;103140;1289;61498;-82
2023/11/12 10:37:03;;;;;;;1.70;1.30;;;;;;;18.76;41.21;100300.78;103155;1289;61324;-82
2023/11/12 10:39:43;;;;;;;1.40;1.10;;;;;;;18.76;41.01;100301.50;103406;1288;72357;-82
2023/11/12 10:42:20;;;;;;;1.90;1.30;;;;;;;18.75;41.05;100313.29;103114;1288;73102;-81
2023/11/12 10:44:48;;;;;;;2.10;1.40;;;;;;;18.75;41.03;100312.75;103484;1288;61276;-80
2023/11/12 10:47:14;;;;;;;1.60;1.20;;;;;;;18.75;41.03;100310.13;103378;1288;61363;-80
2023/11/12 10:49:40;;;;;;;1.50;1.20;;;;;;;18.75;41.03;100310.83;103267;1288;61495;-81
2023/11/12 10:52:08;;;;;;;2.40;1.40;;;;;;;18.75;41.00;100310.27;103249;1288;61768;-81
2023/11/12 10:54:34;;;;;;;1.20;1.00;;;;;;;18.75;40.97;100309.59;103137;1288;61330;-82
2023/11/12 10:57:00;;;;;;;1.70;1.20;;;;;;;18.75;41.05;100309.39;103265;1287;61321;-82
2023/11/12 10:59:26;;;;;;;1.80;1.50;;;;;;;18.74;41.09;100308.53;103309;1288;61463;-81
2023/11/12 11:01:52;;;;;;;2.40;1.40;;;;;;;18.75;41.16;100310.66;103535;1282;62535;-83
2023/11/12 11:04:18;;;;;;;1.40;1.20;;;;;;;18.74;40.99;100310.14;103970;1282;61471;-81
2023/11/12 11:06:45;;;;;;;1.60;1.30;;;;;;;18.74;41.03;100312.10;104383;1280;61356;-82
2023/11/12 11:09:13;;;;;;;2.30;1.30;;;;;;;18.74;40.88;100315.89;104312;1282;61382;-82
2023/11/12 11:11:39;;;;;;;1.80;1.20;;;;;;;18.74;41.04;100324.05;104000;1282;61217;-82
2023/11/12 11:14:24;;;;;;;2.10;1.50;;;;;;;18.74;41.03;100321.41;103971;1287;62436;-82
2023/11/12 11:16:52;;;;;;;2.30;1.40;;;;;;;18.74;41.14;100324.05;104396;1280;61284;-82
2023/11/12 11:19:37;;;;;;;1.40;1.10;;;;;;;18.74;41.09;100328.50;104112;1281;72625;-81
2023/11/12 11:22:22;;;;;;;1.50;1.30;;;;;;;18.74;41.03;100325.52;104115;1281;75317;-82